Time;durP1;ratioP1;P1;durP2;ratioP2;P2;SDS_P1;SDS_P2;PMS_P1;PMS_P2;Temp;Humidity;BMP_temperature;BMP_pressure;BME280_temperature;BME280_humidity;BME280_pressure;Samples;Min_cycle;Max_cycle;Signal;HPM_P1;HPM_P2
2021/04/16 00:01:49;;;;;;;5.20;2.10;;;4.90;99.90;;;;;;12359701;28;20874;-43
2021/04/16 00:07:51;;;;;;;3.72;2.03;;;4.80;99.90;;;;;;12359376;28;20145;-45
2021/04/16 00:13:54;;;;;;;3.50;2.05;;;4.60;99.90;;;;;;12362060;28;20109;-43
2021/04/16 00:19:55;;;;;;;5.57;2.05;;;4.50;99.90;;;;;;12354967;28;20137;-42
2021/04/16 00:25:57;;;;;;;4.40;2.20;;;4.40;99.90;;;;;;12359018;28;20060;-42
2021/04/16 00:31:59;;;;;;;7.65;2.53;;;4.30;99.90;;;;;;12356938;28;20054;-42
2021/04/16 00:38:00;;;;;;;6.45;2.15;;;4.40;99.90;;;;;;12362190;28;20864;-43
2021/04/16 00:44:02;;;;;;;4.13;2.45;;;4.40;99.90;;;;;;12357568;28;20137;-43
2021/04/16 00:50:11;;;;;;;4.15;2.03;;;4.30;99.90;;;;;;12359970;28;20064;-42
2021/04/16 00:56:13;;;;;;;4.47;2.28;;;4.40;99.90;;;;;;12361917;28;20621;-43
2021/04/16 01:02:14;;;;;;;3.88;2.30;;;4.40;99.90;;;;;;12353780;28;20046;-42
2021/04/16 01:08:16;;;;;;;6.43;2.38;;;4.50;99.90;;;;;;12366199;28;20146;-43
2021/04/16 01:14:18;;;;;;;3.90;1.98;;;4.50;99.90;;;;;;12369323;28;20129;-43
2021/04/16 01:20:30;;;;;;;5.55;2.40;;;4.60;99.90;;;;;;12367281;28;20046;-43
2021/04/16 01:26:36;;;;;;;4.60;2.22;;;4.60;99.90;;;;;;12373531;28;20061;-43
2021/04/16 01:32:38;;;;;;;4.68;2.25;;;4.50;99.90;;;;;;12368246;28;20447;-42
2021/04/16 01:38:44;;;;;;;4.53;2.50;;;4.30;99.90;;;;;;12365487;28;20478;-42
2021/04/16 01:44:46;;;;;;;4.30;2.00;;;4.30;99.90;;;;;;12365857;28;20963;-42
2021/04/16 01:50:47;;;;;;;3.63;2.08;;;4.30;99.90;;;;;;12365977;28;20123;-42
2021/04/16 01:56:53;;;;;;;6.28;3.25;;;4.40;99.90;;;;;;12370022;28;20551;-44
2021/04/16 02:02:54;;;;;;;5.13;3.00;;;4.30;99.90;;;;;;12374142;28;20747;-43
2021/04/16 02:08:56;;;;;;;7.05;3.85;;;4.50;99.90;;;;;;12360302;28;20045;-43
2021/04/16 02:14:57;;;;;;;7.22;3.58;;;4.50;99.90;;;;;;12372007;28;20321;-43
2021/04/16 02:20:59;;;;;;;6.25;3.60;;;4.40;99.90;;;;;;12368829;28;20065;-45
2021/04/16 02:27:00;;;;;;;5.57;3.35;;;4.40;99.90;;;;;;12355380;28;20704;-42
2021/04/16 02:33:02;;;;;;;7.78;4.05;;;4.30;99.90;;;;;;12367550;28;20495;-42
2021/04/16 02:39:06;;;;;;;6.53;3.85;;;4.30;99.90;;;;;;12366249;28;20081;-42
2021/04/16 02:45:11;;;;;;;5.60;3.58;;;4.20;99.90;;;;;;12367827;28;20057;-42
2021/04/16 02:51:12;;;;;;;7.85;3.95;;;4.40;99.90;;;;;;12355899;28;20519;-44
2021/04/16 02:57:13;;;;;;;7.15;3.53;;;4.50;99.90;;;;;;12369752;28;20046;-42
2021/04/16 03:03:15;;;;;;;5.15;3.40;;;4.30;99.90;;;;;;12361425;28;20136;-42
2021/04/16 03:09:16;;;;;;;3.97;2.83;;;4.60;99.90;;;;;;12367563;28;20054;-42
2021/04/16 03:15:18;;;;;;;4.88;2.75;;;4.70;99.90;;;;;;12360159;28;20050;-42
2021/04/16 03:21:20;;;;;;;4.50;2.70;;;4.70;99.90;;;;;;12367303;28;20585;-43
2021/04/16 03:27:21;;;;;;;5.80;2.90;;;4.20;99.90;;;;;;12371213;28;20089;-44
2021/04/16 03:33:23;;;;;;;5.47;2.40;;;4.50;99.90;;;;;;12365384;28;20065;-42
2021/04/16 03:39:24;;;;;;;5.05;2.60;;;4.60;99.90;;;;;;12368161;28;20086;-42
2021/04/16 03:45:27;;;;;;;8.15;2.78;;;4.60;99.90;;;;;;12369221;28;20157;-42
2021/04/16 03:51:28;;;;;;;7.22;2.60;;;4.60;99.90;;;;;;12363644;28;20149;-42
2021/04/16 03:57:30;;;;;;;7.65;2.90;;;4.60;99.90;;;;;;12362496;28;20056;-42
2021/04/16 04:03:32;;;;;;;6.75;2.75;;;4.60;99.90;;;;;;12366319;28;20073;-44
2021/04/16 04:09:36;;;;;;;6.63;3.13;;;4.40;99.90;;;;;;12361763;28;20049;-43
2021/04/16 04:15:38;;;;;;;6.35;3.03;;;4.30;99.90;;;;;;12366203;28;20073;-42
2021/04/16 04:22:00;;;;;;;5.15;2.47;;;4.10;99.90;;;;;;12359892;28;20058;-43
2021/04/16 04:28:05;;;;;;;8.10;3.35;;;4.10;99.90;;;;;;12363098;28;20173;-43
2021/04/16 04:34:06;;;;;;;5.00;2.97;;;4.20;99.90;;;;;;12361330;28;20120;-44
2021/04/16 04:40:09;;;;;;;6.47;2.90;;;4.00;99.90;;;;;;12365569;28;20137;-42
2021/04/16 04:46:10;;;;;;;4.28;2.70;;;4.20;99.90;;;;;;12364628;28;20174;-43
2021/04/16 04:52:13;;;;;;;7.68;2.97;;;4.30;99.90;;;;;;12357178;28;20137;-42
2021/04/16 04:58:15;;;;;;;5.68;2.90;;;4.50;99.90;;;;;;12358492;28;20050;-43
2021/04/16 05:04:16;;;;;;;5.38;2.80;;;4.60;99.90;;;;;;12361098;28;20426;-44
2021/04/16 05:10:18;;;;;;;6.80;3.38;;;4.50;99.90;;;;;;12358160;28;20141;-42
2021/04/16 05:16:20;;;;;;;7.05;3.03;;;4.50;99.90;;;;;;12364342;28;20050;-44
2021/04/16 05:22:21;;;;;;;6.32;3.30;;;4.80;99.90;;;;;;12357231;28;20403;-43
2021/04/16 05:28:23;;;;;;;9.90;3.75;;;4.70;99.90;;;;;;12363143;28;20081;-42
2021/04/16 05:34:24;;;;;;;5.72;3.50;;;4.50;99.90;;;;;;12360973;28;20042;-42
2021/04/16 05:40:27;;;;;;;7.47;4.43;;;4.60;99.90;;;;;;12352926;28;20124;-42
2021/04/16 05:46:28;;;;;;;8.95;3.97;;;4.80;99.90;;;;;;12353927;28;20205;-42
2021/04/16 05:52:30;;;;;;;6.07;3.80;;;5.00;99.90;;;;;;12355275;28;20141;-42
2021/04/16 05:58:32;;;;;;;6.65;3.72;;;5.10;99.90;;;;;;12372954;28;20137;-42
2021/04/16 06:04:33;;;;;;;6.47;3.70;;;5.20;99.90;;;;;;12370033;28;20064;-42
2021/04/16 06:10:56;;;;;;;6.35;3.22;;;5.50;99.90;;;;;;12369874;28;20042;-43
2021/04/16 06:16:57;;;;;;;6.00;3.17;;;5.60;99.90;;;;;;12368953;28;20095;-43
2021/04/16 06:22:59;;;;;;;5.25;2.72;;;5.60;99.90;;;;;;12369105;28;20109;-43
2021/04/16 06:29:03;;;;;;;6.30;3.15;;;5.60;99.90;;;;;;12374760;28;20055;-43
2021/04/16 06:35:06;;;;;;;6.75;2.85;;;5.80;99.90;;;;;;12369129;28;20447;-42
2021/04/16 06:41:27;;;;;;;4.18;2.45;;;5.80;99.90;;;;;;12368574;28;20054;-43
2021/04/16 06:47:39;;;;;;;6.53;2.63;;;5.90;99.90;;;;;;12370659;28;20637;-42
2021/04/16 06:53:54;;;;;;;7.25;2.72;;;6.10;99.90;;;;;;12370303;28;20054;-42
2021/04/16 06:59:59;;;;;;;;;;;6.20;99.90;;;;;;12373389;28;20052;-42
2021/04/16 07:06:11;;;;;;;7.17;2.80;;;6.30;99.90;;;;;;12366306;28;19930;-44
2021/04/16 07:12:24;;;;;;;6.07;3.05;;;6.50;99.90;;;;;;12363950;28;20054;-42
2021/04/16 07:18:29;;;;;;;;;;;6.60;99.90;;;;;;12368706;28;20160;-42
2021/04/16 07:24:31;;;;;;;7.82;3.00;;;6.60;99.90;;;;;;12365115;28;19976;-42
2021/04/16 07:30:47;;;;;;;6.70;3.22;;;6.50;99.90;;;;;;12367961;28;20497;-42
2021/04/16 07:36:48;;;;;;;6.63;3.58;;;6.70;99.90;;;;;;12362115;28;20551;-43
2021/04/16 07:42:51;;;;;;;5.25;2.60;;;6.50;99.90;;;;;;12359531;28;20046;-42
2021/04/16 07:49:18;;;;;;;6.93;2.40;;;7.00;99.90;;;;;;12357473;28;20050;-42
2021/04/16 07:55:27;;;;;;;6.82;2.63;;;7.00;99.90;;;;;;12364394;28;20092;-44
2021/04/16 08:01:31;;;;;;;5.45;2.50;;;7.10;99.90;;;;;;12365364;28;20144;-43
2021/04/16 08:07:35;;;;;;;4.72;2.60;;;7.40;99.90;;;;;;12359727;28;20061;-43
2021/04/16 08:14:01;;;;;;;7.70;2.38;;;7.50;99.90;;;;;;12369421;28;20124;-43
2021/04/16 08:20:25;;;;;;;5.38;2.38;;;7.80;99.90;;;;;;12358972;28;20140;-43
2021/04/16 08:26:48;;;;;;;4.47;2.20;;;7.80;99.90;;;;;;12363827;28;20168;-42
2021/04/16 08:33:13;;;;;;;4.05;2.15;;;8.00;99.90;;;;;;12360699;28;20043;-43
2021/04/16 08:39:24;;;;;;;8.75;2.33;;;8.20;99.90;;;;;;12363876;28;20046;-43
2021/04/16 08:45:28;;;;;;;2.95;1.70;;;8.70;99.90;;;;;;12361003;28;20069;-43
2021/04/16 08:51:32;;;;;;;4.33;2.13;;;8.80;99.90;;;;;;12360659;28;20818;-43
2021/04/16 08:57:52;;;;;;;8.25;1.95;;;8.90;99.90;;;;;;12368060;28;20046;-43
2021/04/16 09:03:55;;;;;;;3.47;1.73;;;9.00;99.90;;;;;;12362322;28;20046;-44
2021/04/16 09:09:59;;;;;;;3.00;1.80;;;9.30;99.90;;;;;;12362212;28;20109;-44
2021/04/16 09:16:16;;;;;;;3.58;1.70;;;9.90;99.90;;;;;;12362286;28;20047;-43
2021/04/16 09:22:34;;;;;;;4.10;1.30;;;10.10;99.90;;;;;;12363569;28;20092;-43
2021/04/16 09:28:55;;;;;;;4.07;1.73;;;10.10;99.90;;;;;;12364720;28;20140;-47
2021/04/16 09:34:56;;;;;;;3.92;1.60;;;10.30;99.90;;;;;;12361547;28;20058;-44
2021/04/16 09:41:20;;;;;;;4.70;1.15;;;10.40;99.90;;;;;;12372064;28;20056;-44
2021/04/16 09:47:42;;;;;;;2.75;1.35;;;10.80;99.90;;;;;;12369483;28;20101;-43
2021/04/16 09:54:13;;;;;;;3.97;1.40;;;10.80;99.90;;;;;;12364987;28;20043;-45
2021/04/16 10:00:35;;;;;;;3.25;1.40;;;10.80;99.90;;;;;;12366459;28;20500;-45
2021/04/16 10:06:43;;;;;;;3.80;1.45;;;10.80;99.90;;;;;;12365397;28;20054;-43
2021/04/16 10:12:44;;;;;;;2.08;1.23;;;11.20;99.90;;;;;;12364273;28;20137;-44
2021/04/16 10:18:46;;;;;;;3.63;1.40;;;11.40;99.90;;;;;;12365463;28;20046;-44
2021/04/16 12:39:22;;;;;;;5.18;1.90;;;13.30;99.90;;;;;;12357643;28;20054;-43
2021/04/16 12:45:24;;;;;;;5.28;2.10;;;12.40;99.90;;;;;;12358960;28;20581;-43
2021/04/16 12:51:26;;;;;;;3.97;2.25;;;12.90;99.90;;;;;;12363187;28;20038;-43
2021/04/16 12:57:37;;;;;;;4.50;2.20;;;13.80;99.90;;;;;;12368301;28;20099;-44
2021/04/16 13:03:41;;;;;;;5.72;2.25;;;13.90;99.90;;;;;;12370753;28;20506;-43
2021/04/16 13:09:42;;;;;;;3.57;1.83;;;14.10;99.90;;;;;;12369547;28;20058;-44
2021/04/16 13:15:44;;;;;;;3.47;2.20;;;13.60;99.90;;;;;;12366795;28;20503;-43
2021/04/16 13:21:45;;;;;;;4.82;2.15;;;13.70;99.90;;;;;;12370628;28;20125;-44
2021/04/16 13:27:47;;;;;;;6.05;2.22;;;13.60;99.90;;;;;;12375182;28;20109;-45
2021/04/16 13:33:49;;;;;;;5.47;2.25;;;13.30;99.90;;;;;;12368659;28;20050;-44
2021/04/16 13:39:51;;;;;;;4.72;2.20;;;13.20;99.90;;;;;;12369104;28;20049;-43
2021/04/16 13:45:52;;;;;;;3.70;2.13;;;13.60;99.90;;;;;;12370400;28;20085;-45
2021/04/16 13:51:53;;;;;;;5.70;2.05;;;13.90;99.90;;;;;;12373612;28;20100;-45
2021/04/16 13:57:58;;;;;;;7.72;2.30;;;14.90;99.90;;;;;;12370446;28;20050;-45
2021/04/16 14:04:05;;;;;;;5.68;2.67;;;14.40;99.90;;;;;;12371825;28;20086;-43
2021/04/16 14:10:06;;;;;;;4.53;2.08;;;14.80;99.90;;;;;;12366436;28;20054;-43
2021/04/16 14:16:12;;;;;;;3.78;2.25;;;14.70;99.90;;;;;;12369967;28;20085;-43
2021/04/16 14:22:28;;;;;;;5.13;2.38;;;14.70;99.90;;;;;;12363921;28;20088;-44
2021/04/16 14:28:29;;;;;;;5.13;2.67;;;14.20;99.90;;;;;;12365046;28;20054;-43
2021/04/16 14:34:34;;;;;;;7.70;3.83;;;14.40;99.90;;;;;;12357327;28;20699;-43
2021/04/16 14:40:36;;;;;;;;;;;14.10;99.90;;;;;;12365818;28;20054;-43
2021/04/16 14:46:37;;;;;;;6.18;2.30;;;14.70;99.90;;;;;;12363949;28;19960;-43
2021/04/16 14:52:40;;;;;;;4.07;2.13;;;14.90;99.90;;;;;;12357553;28;20054;-43
2021/04/16 14:58:47;;;;;;;5.13;2.63;;;14.60;99.90;;;;;;12367397;28;20046;-45
2021/04/16 15:04:49;;;;;;;3.92;2.30;;;15.30;99.90;;;;;;12364699;28;20073;-43
2021/04/16 15:11:14;;;;;;;4.95;2.53;;;15.00;99.90;;;;;;12364358;28;20443;-44
2021/04/16 15:17:16;;;;;;;5.20;2.42;;;14.50;99.90;;;;;;12357987;28;20567;-43
2021/04/16 15:23:18;;;;;;;5.53;2.08;;;14.50;99.90;;;;;;12362570;28;20042;-43
2021/04/16 15:29:29;;;;;;;3.75;2.63;;;14.10;99.90;;;;;;12361674;28;20100;-43
2021/04/16 15:48:20;;;;;;;5.22;2.35;;;14.70;99.90;;;;;;12354011;28;20133;-43
2021/04/16 15:54:22;;;;;;;4.28;2.35;;;14.00;99.90;;;;;;12358225;28;20046;-45
2021/04/16 16:00:38;;;;;;;4.18;2.10;;;13.50;99.90;;;;;;12358264;28;20054;-43
2021/04/16 16:06:41;;;;;;;5.63;1.95;;;14.00;99.90;;;;;;12348831;28;20053;-43
2021/04/16 16:12:49;;;;;;;4.07;2.15;;;13.50;99.90;;;;;;12359890;28;20043;-43
2021/04/16 16:18:52;;;;;;;6.05;2.08;;;13.50;99.90;;;;;;12360082;28;20050;-44
2021/04/16 16:24:53;;;;;;;4.28;2.25;;;13.50;99.90;;;;;;12353068;28;20054;-45
2021/04/16 16:30:56;;;;;;;3.08;1.85;;;13.30;99.90;;;;;;12360499;28;20096;-43
2021/04/16 16:36:58;;;;;;;8.50;1.88;;;13.10;99.90;;;;;;12357095;28;20142;-43
2021/04/16 16:43:35;;;;;;;3.22;1.80;;;12.80;99.90;;;;;;12357179;28;20050;-43
2021/04/16 16:49:38;;;;;;;3.05;1.73;;;12.50;99.90;;;;;;12352821;28;20086;-43
2021/04/16 16:55:41;;;;;;;4.50;1.70;;;12.10;99.90;;;;;;12353019;28;20075;-44
2021/04/16 17:01:43;;;;;;;3.88;1.83;;;11.50;99.90;;;;;;12356001;28;20070;-44
2021/04/16 17:07:44;;;;;;;3.83;1.80;;;11.40;99.90;;;;;;12357655;28;20088;-44
2021/04/16 17:13:48;;;;;;;2.35;1.50;;;11.20;99.90;;;;;;12355406;28;20513;-44
2021/04/16 17:19:50;;;;;;;6.63;2.33;;;10.80;99.90;;;;;;12359367;28;20062;-43
2021/04/16 17:25:53;;;;;;;5.25;1.85;;;10.90;99.90;;;;;;12354812;28;20038;-43
2021/04/16 17:31:56;;;;;;;5.03;1.88;;;10.90;99.90;;;;;;12363197;28;20076;-44
2021/04/16 17:37:58;;;;;;;5.00;2.25;;;11.10;99.90;;;;;;12362992;28;20054;-44
2021/04/16 17:44:02;;;;;;;2.90;1.70;;;11.30;99.90;;;;;;12363116;28;20104;-42
2021/04/16 17:50:28;;;;;;;3.15;1.70;;;11.10;99.90;;;;;;12361958;28;20315;-46
2021/04/16 17:56:31;;;;;;;5.95;1.65;;;10.80;99.90;;;;;;12368401;28;20441;-43
2021/04/16 18:02:34;;;;;;;6.38;1.77;;;10.40;99.90;;;;;;12371639;28;20045;-43
2021/04/16 18:08:36;;;;;;;4.10;2.00;;;10.10;99.90;;;;;;12367024;28;20054;-43
2021/04/16 18:14:37;;;;;;;4.35;2.00;;;9.90;99.90;;;;;;12370240;28;20045;-43
2021/04/16 18:20:39;;;;;;;5.82;1.77;;;9.60;99.90;;;;;;12369932;28;20157;-43
2021/04/16 18:26:42;;;;;;;3.75;1.88;;;9.50;99.90;;;;;;12366753;28;20050;-43
2021/04/16 18:32:45;;;;;;;6.55;2.10;;;9.30;99.90;;;;;;12367684;28;20154;-44
2021/04/16 18:38:53;;;;;;;3.73;1.93;;;9.10;99.90;;;;;;12365283;28;20070;-44
2021/04/16 18:44:56;;;;;;;6.82;2.20;;;9.00;99.90;;;;;;12364413;28;20483;-43
2021/04/16 18:50:59;;;;;;;3.55;1.80;;;8.90;99.90;;;;;;12366083;28;20042;-42
2021/04/16 18:57:00;;;;;;;5.05;2.25;;;8.60;99.90;;;;;;12364631;28;20047;-43
2021/04/16 19:03:03;;;;;;;3.17;1.60;;;8.50;99.90;;;;;;12360081;28;20080;-42
2021/04/16 19:09:06;;;;;;;4.20;1.52;;;8.10;99.90;;;;;;12367851;28;20778;-43
2021/04/16 19:15:11;;;;;;;3.90;1.30;;;8.10;99.90;;;;;;12361455;28;20148;-42
2021/04/16 19:21:24;;;;;;;3.00;1.23;;;8.00;99.90;;;;;;12359466;28;20046;-42
2021/04/16 19:27:27;;;;;;;3.72;1.40;;;7.90;99.90;;;;;;12362706;28;20046;-42
2021/04/16 19:33:30;;;;;;;8.10;1.30;;;7.80;99.90;;;;;;12366420;28;20523;-42
2021/04/16 19:39:35;;;;;;;3.75;1.10;;;7.80;99.90;;;;;;12361714;28;20037;-44
2021/04/16 19:45:37;;;;;;;3.53;1.30;;;7.80;99.90;;;;;;12366141;28;20153;-42
2021/04/16 19:58:50;;;;;;;2.70;1.40;;;7.80;99.90;;;;;;12333231;28;20054;-42
2021/04/16 20:17:31;;;;;;;7.25;1.90;;;7.60;99.90;;;;;;12359115;28;20046;-45
2021/04/16 20:23:37;;;;;;;4.05;1.77;;;7.50;99.90;;;;;;12368765;28;20572;-43
2021/04/16 20:29:39;;;;;;;3.92;1.48;;;7.40;99.90;;;;;;12365738;28;20400;-44
2021/04/16 20:35:41;;;;;;;3.80;1.73;;;7.20;99.90;;;;;;12359649;28;20073;-43
2021/04/16 20:41:45;;;;;;;5.75;1.92;;;7.00;99.90;;;;;;12358754;28;20576;-42
2021/04/16 20:47:47;;;;;;;4.63;2.03;;;7.00;99.90;;;;;;12362983;28;20085;-43
2021/04/16 20:53:50;;;;;;;3.80;1.73;;;7.00;99.90;;;;;;12365792;28;20047;-43
2021/04/16 20:59:51;;;;;;;2.92;1.33;;;6.70;99.90;;;;;;12364752;28;20049;-42
2021/04/16 21:06:16;;;;;;;2.83;1.48;;;6.60;99.90;;;;;;12365599;28;20134;-42
2021/04/16 21:12:24;;;;;;;5.63;1.90;;;6.40;99.90;;;;;;12361872;28;20054;-42
2021/04/16 21:18:40;;;;;;;3.45;1.83;;;6.40;99.90;;;;;;12361466;28;20483;-43
2021/04/16 21:24:47;;;;;;;6.15;2.17;;;6.20;99.90;;;;;;12360329;28;20050;-43
2021/04/16 21:30:50;;;;;;;3.42;1.70;;;6.00;99.90;;;;;;12373438;28;20035;-42
2021/04/16 21:36:52;;;;;;;4.35;1.98;;;6.00;99.90;;;;;;12368735;28;20130;-45
2021/04/16 21:42:57;;;;;;;6.72;2.05;;;6.00;99.90;;;;;;12366135;28;20710;-43
2021/04/16 21:49:07;;;;;;;;;;;5.80;99.90;;;;;;12367347;28;20059;-42
2021/04/16 21:55:16;;;;;;;5.05;1.85;;;5.80;99.90;;;;;;12377675;28;19976;-42
2021/04/16 22:01:26;;;;;;;5.38;1.83;;;5.70;99.90;;;;;;12369547;28;20502;-42
2021/04/16 22:07:35;;;;;;;5.50;1.88;;;5.70;99.90;;;;;;12369997;28;20046;-43
2021/04/16 22:13:38;;;;;;;6.35;1.80;;;5.60;99.90;;;;;;12364948;28;20048;-43
2021/04/16 22:19:43;;;;;;;4.53;1.80;;;5.60;99.90;;;;;;12369961;28;20260;-43
2021/04/16 22:25:45;;;;;;;4.38;2.05;;;5.60;99.90;;;;;;12367799;28;20052;-42
2021/04/16 22:31:48;;;;;;;4.38;1.90;;;5.60;99.90;;;;;;12366398;28;20046;-44
2021/04/16 22:37:50;;;;;;;5.75;1.98;;;5.50;99.90;;;;;;12373130;28;20069;-42
2021/04/16 22:44:13;;;;;;;5.53;1.85;;;5.40;99.90;;;;;;12365790;28;20096;-42
2021/04/16 22:50:22;;;;;;;3.80;1.77;;;5.10;99.90;;;;;;12369987;28;20145;-42
2021/04/16 22:56:34;;;;;;;5.60;2.20;;;5.10;99.90;;;;;;12362150;28;20108;-42
2021/04/16 23:02:46;;;;;;;3.42;1.85;;;5.00;99.90;;;;;;12366377;28;20605;-42
2021/04/16 23:08:48;;;;;;;4.68;1.80;;;4.70;99.90;;;;;;12367715;28;20043;-42
2021/04/16 23:14:53;;;;;;;4.85;1.52;;;4.60;99.90;;;;;;12361526;28;20150;-44
2021/04/16 23:20:56;;;;;;;3.80;1.60;;;4.80;99.90;;;;;;12369262;28;20515;-43
2021/04/16 23:27:00;;;;;;;4.57;1.60;;;4.80;99.90;;;;;;12365436;28;20433;-43
2021/04/16 23:33:39;;;;;;;2.90;1.67;;;4.90;99.90;;;;;;12367287;28;20452;-42
2021/04/16 23:39:47;;;;;;;3.58;1.80;;;4.80;99.90;;;;;;12360813;28;20092;-43
2021/04/16 23:45:49;;;;;;;5.60;1.73;;;4.80;99.90;;;;;;12361933;28;20034;-44
2021/04/16 23:51:53;;;;;;;4.55;2.03;;;4.80;99.90;;;;;;12360494;28;20050;-42
2021/04/16 23:57:59;;;;;;;5.05;1.73;;;4.80;99.90;;;;;;12366627;28;20042;-42
